LHA2MK KRNT-KPDX
Flight info
| Callsign | LHA2MK |
|---|---|
| Flight time | 0h 37m |
| Altitude | 19000 |
| Route | SEA BUWZO |
| Aircraft | B737/M-SDE1E2FGIRWYZ/S |
Departure
| Time | 2026-05-04 12:50 |
|---|---|
| Airport | Renton Municipal Airport (KRNT) |
Arrival
| Time | 2026-05-04 13:27 |
|---|---|
| Airport | Portland International Airport (KPDX) |
| Time | Latitude | Longitude | Altitude | Speed | Heading |
|---|---|---|---|---|---|
| 2026-05-04 12:36 | 47.48762 | -122.21272 | 34 ft | 0 kts | 83° |
| 2026-05-04 12:44 | 47.48762 | -122.21275 | 34 ft | 2 kts | 83° |
| 2026-05-04 12:45 | 47.48760 | -122.21295 | 34 ft | 2 kts | 83° |
| 2026-05-04 12:45 | 47.48759 | -122.21316 | 32 ft | 2 kts | 109° |
| 2026-05-04 12:45 | 47.48765 | -122.21334 | 33 ft | 2 kts | 140° |
| 2026-05-04 12:45 | 47.48777 | -122.21346 | 31 ft | 2 kts | 172° |
| 2026-05-04 12:46 | 47.48780 | -122.21346 | 31 ft | 0 kts | 174° |
| 2026-05-04 12:48 | 47.48779 | -122.21346 | 31 ft | 1 kts | 175° |
| 2026-05-04 12:48 | 47.48750 | -122.21343 | 33 ft | 6 kts | 176° |
| 2026-05-04 12:49 | 47.48696 | -122.21337 | 34 ft | 9 kts | 175° |
| 2026-05-04 12:49 | 47.48639 | -122.21360 | 34 ft | 9 kts | 217° |
| 2026-05-04 12:49 | 47.48613 | -122.21434 | 33 ft | 8 kts | 278° |
| 2026-05-04 12:49 | 47.48659 | -122.21477 | 33 ft | 9 kts | 348° |
| 2026-05-04 12:50 | 47.48937 | -122.21522 | 36 ft | 87 kts | 354° |
| 2026-05-04 12:50 | 47.49813 | -122.21638 | 116 ft | 154 kts | 356° |
| 2026-05-04 12:50 | 47.50940 | -122.21696 | 823 ft | 171 kts | 2° |
| 2026-05-04 12:50 | 47.52176 | -122.21587 | 1699 ft | 184 kts | 4° |
| 2026-05-04 12:51 | 47.53394 | -122.21436 | 2504 ft | 171 kts | 5° |
| 2026-05-04 12:51 | 47.54536 | -122.21284 | 2733 ft | 158 kts | 5° |
| 2026-05-04 12:51 | 47.55613 | -122.21131 | 3259 ft | 153 kts | 5° |
| 2026-05-04 12:51 | 47.56664 | -122.20972 | 4233 ft | 151 kts | 5° |
| 2026-05-04 12:52 | 47.57707 | -122.20810 | 5155 ft | 153 kts | 5° |
| 2026-05-04 12:52 | 47.58787 | -122.20653 | 6015 ft | 157 kts | 5° |
| 2026-05-04 12:52 | 47.59888 | -122.20760 | 6814 ft | 164 kts | 335° |
| 2026-05-04 12:52 | 47.60697 | -122.21927 | 7625 ft | 169 kts | 293° |
| 2026-05-04 12:53 | 47.60803 | -122.23669 | 8399 ft | 178 kts | 262° |
| 2026-05-04 12:53 | 47.60518 | -122.25589 | 8831 ft | 210 kts | 249° |
| 2026-05-04 12:53 | 47.59512 | -122.27359 | 9091 ft | 242 kts | 208° |
| 2026-05-04 12:53 | 47.57798 | -122.27958 | 9462 ft | 265 kts | 182° |
| 2026-05-04 12:54 | 47.55950 | -122.28099 | 10153 ft | 273 kts | 183° |
| 2026-05-04 12:54 | 47.54038 | -122.28341 | 10919 ft | 278 kts | 186° |
| 2026-05-04 12:54 | 47.52077 | -122.28709 | 11706 ft | 283 kts | 188° |
| 2026-05-04 12:54 | 47.50121 | -122.29175 | 12480 ft | 287 kts | 190° |
| 2026-05-04 12:55 | 47.48133 | -122.29704 | 13282 ft | 292 kts | 191° |
| 2026-05-04 12:55 | 47.46121 | -122.30262 | 14037 ft | 297 kts | 191° |
| 2026-05-04 12:55 | 47.44076 | -122.30831 | 14762 ft | 301 kts | 190° |
| 2026-05-04 12:55 | 47.41976 | -122.31123 | 15496 ft | 305 kts | 181° |
| 2026-05-04 12:56 | 47.39839 | -122.31144 | 16233 ft | 310 kts | 179° |
| 2026-05-04 12:56 | 47.37666 | -122.31112 | 16963 ft | 314 kts | 179° |
| 2026-05-04 12:56 | 47.35462 | -122.31074 | 17692 ft | 319 kts | 179° |
| 2026-05-04 12:56 | 47.33230 | -122.31045 | 18385 ft | 323 kts | 179° |
| 2026-05-04 12:57 | 47.30959 | -122.31024 | 18862 ft | 328 kts | 179° |
| 2026-05-04 12:57 | 47.28682 | -122.31012 | 18893 ft | 327 kts | 179° |
| 2026-05-04 12:57 | 47.26409 | -122.31006 | 18899 ft | 327 kts | 179° |
| 2026-05-04 12:57 | 47.24130 | -122.31003 | 18907 ft | 327 kts | 179° |
| 2026-05-04 12:58 | 47.21854 | -122.31001 | 18906 ft | 327 kts | 179° |
| 2026-05-04 12:58 | 47.19603 | -122.31000 | 18908 ft | 328 kts | 179° |
| 2026-05-04 12:58 | 47.17325 | -122.31000 | 18907 ft | 328 kts | 179° |
| 2026-05-04 12:58 | 47.15013 | -122.31000 | 18913 ft | 328 kts | 179° |
| 2026-05-04 12:59 | 47.12730 | -122.31000 | 18898 ft | 328 kts | 179° |
| 2026-05-04 12:59 | 47.10476 | -122.31000 | 18907 ft | 328 kts | 179° |
| 2026-05-04 12:59 | 47.08164 | -122.31000 | 18908 ft | 328 kts | 179° |
| 2026-05-04 12:59 | 47.05917 | -122.31000 | 18908 ft | 327 kts | 179° |
| 2026-05-04 13:00 | 47.03641 | -122.31000 | 18910 ft | 327 kts | 179° |
| 2026-05-04 13:00 | 47.01361 | -122.31000 | 18906 ft | 327 kts | 179° |
| 2026-05-04 13:00 | 46.99082 | -122.31000 | 18915 ft | 327 kts | 179° |
| 2026-05-04 13:00 | 46.96805 | -122.31000 | 18915 ft | 327 kts | 179° |
| 2026-05-04 13:01 | 46.94518 | -122.31000 | 18906 ft | 335 kts | 179° |
| 2026-05-04 13:01 | 46.92086 | -122.30996 | 18924 ft | 364 kts | 179° |
| 2026-05-04 13:01 | 46.89487 | -122.30992 | 18924 ft | 377 kts | 179° |
| 2026-05-04 13:01 | 46.86851 | -122.30991 | 18926 ft | 380 kts | 179° |
| 2026-05-04 13:02 | 46.84209 | -122.30990 | 18923 ft | 379 kts | 179° |
| 2026-05-04 13:02 | 46.82848 | -122.30990 | 18914 ft | 379 kts | 179° |
| 2026-05-04 13:03 | 46.80565 | -122.30990 | 18917 ft | 379 kts | 179° |
| 2026-05-04 13:03 | 46.77929 | -122.30989 | 18919 ft | 378 kts | 179° |
| 2026-05-04 13:04 | 46.75300 | -122.30989 | 18928 ft | 378 kts | 179° |
| 2026-05-04 13:04 | 46.72665 | -122.30987 | 18928 ft | 378 kts | 179° |
| 2026-05-04 13:04 | 46.70030 | -122.30985 | 18921 ft | 379 kts | 179° |
| 2026-05-04 13:04 | 46.67392 | -122.30983 | 18913 ft | 379 kts | 179° |
| 2026-05-04 13:05 | 46.64751 | -122.30982 | 18916 ft | 379 kts | 179° |
| 2026-05-04 13:05 | 46.62108 | -122.30981 | 18910 ft | 379 kts | 179° |
| 2026-05-04 13:05 | 46.59469 | -122.30980 | 18915 ft | 379 kts | 179° |
| 2026-05-04 13:05 | 46.56868 | -122.30978 | 18937 ft | 378 kts | 179° |
| 2026-05-04 13:06 | 46.54232 | -122.30977 | 18918 ft | 379 kts | 179° |
| 2026-05-04 13:06 | 46.51594 | -122.30975 | 18906 ft | 379 kts | 179° |
| 2026-05-04 13:06 | 46.48954 | -122.30973 | 18905 ft | 379 kts | 179° |
| 2026-05-04 13:06 | 46.46319 | -122.30971 | 18918 ft | 379 kts | 179° |
| 2026-05-04 13:07 | 46.43680 | -122.30970 | 18912 ft | 379 kts | 179° |
| 2026-05-04 13:07 | 46.41039 | -122.30969 | 18910 ft | 379 kts | 179° |
| 2026-05-04 13:07 | 46.38405 | -122.30967 | 18914 ft | 379 kts | 179° |
| 2026-05-04 13:07 | 46.35752 | -122.30966 | 18467 ft | 386 kts | 179° |
| 2026-05-04 13:08 | 46.33044 | -122.30963 | 17751 ft | 392 kts | 179° |
| 2026-05-04 13:08 | 46.30331 | -122.30963 | 17072 ft | 388 kts | 179° |
| 2026-05-04 13:08 | 46.27649 | -122.30961 | 16436 ft | 383 kts | 179° |
| 2026-05-04 13:08 | 46.25005 | -122.31270 | 15735 ft | 381 kts | 194° |
| 2026-05-04 13:09 | 46.22520 | -122.32561 | 15090 ft | 377 kts | 202° |
| 2026-05-04 13:09 | 46.20101 | -122.33987 | 14417 ft | 375 kts | 202° |
| 2026-05-04 13:09 | 46.17685 | -122.35381 | 13724 ft | 373 kts | 202° |
| 2026-05-04 13:09 | 46.15278 | -122.36758 | 12964 ft | 371 kts | 202° |
| 2026-05-04 13:10 | 46.12885 | -122.38107 | 12248 ft | 368 kts | 202° |
| 2026-05-04 13:10 | 46.10514 | -122.39429 | 11699 ft | 361 kts | 201° |
| 2026-05-04 13:10 | 46.08232 | -122.40691 | 11381 ft | 347 kts | 201° |
| 2026-05-04 13:10 | 46.05977 | -122.41912 | 10776 ft | 342 kts | 201° |
| 2026-05-04 13:11 | 46.03796 | -122.43082 | 10195 ft | 328 kts | 202° |
| 2026-05-04 13:11 | 46.01738 | -122.44185 | 10073 ft | 303 kts | 202° |
| 2026-05-04 13:11 | 45.99824 | -122.45213 | 9764 ft | 288 kts | 202° |
| 2026-05-04 13:11 | 45.97976 | -122.46207 | 9301 ft | 279 kts | 202° |
| 2026-05-04 13:12 | 45.96172 | -122.47178 | 8882 ft | 276 kts | 202° |
| 2026-05-04 13:12 | 45.94373 | -122.48146 | 8451 ft | 277 kts | 202° |
| 2026-05-04 13:12 | 45.92490 | -122.48687 | 8000 ft | 280 kts | 178° |
| 2026-05-04 13:12 | 45.90559 | -122.48287 | 7619 ft | 281 kts | 171° |
| 2026-05-04 13:13 | 45.88634 | -122.47779 | 7181 ft | 282 kts | 170° |
| 2026-05-04 13:13 | 45.86699 | -122.47268 | 6758 ft | 284 kts | 170° |
| 2026-05-04 13:13 | 45.84748 | -122.46767 | 6343 ft | 284 kts | 170° |
| 2026-05-04 13:13 | 45.82840 | -122.46286 | 6186 ft | 274 kts | 170° |
| 2026-05-04 13:14 | 45.80989 | -122.45824 | 6032 ft | 265 kts | 171° |
| 2026-05-04 13:14 | 45.79220 | -122.45383 | 5977 ft | 252 kts | 171° |
| 2026-05-04 13:14 | 45.77523 | -122.44961 | 5971 ft | 245 kts | 171° |
| 2026-05-04 13:14 | 45.75851 | -122.44546 | 5977 ft | 243 kts | 171° |
| 2026-05-04 13:15 | 45.74180 | -122.44131 | 5986 ft | 245 kts | 171° |
| 2026-05-04 13:15 | 45.72495 | -122.43714 | 5993 ft | 247 kts | 171° |
| 2026-05-04 13:15 | 45.70800 | -122.43293 | 5986 ft | 248 kts | 171° |
| 2026-05-04 13:15 | 45.69098 | -122.42871 | 6013 ft | 249 kts | 171° |
| 2026-05-04 13:16 | 45.67391 | -122.42448 | 6010 ft | 249 kts | 171° |
| 2026-05-04 13:16 | 45.65683 | -122.42025 | 6014 ft | 249 kts | 171° |
| 2026-05-04 13:16 | 45.63974 | -122.41602 | 6011 ft | 249 kts | 171° |
| 2026-05-04 13:16 | 45.62261 | -122.41179 | 6005 ft | 249 kts | 171° |
| 2026-05-04 13:17 | 45.60537 | -122.40741 | 5990 ft | 249 kts | 167° |
| 2026-05-04 13:17 | 45.59029 | -122.39594 | 5828 ft | 247 kts | 131° |
| 2026-05-04 13:17 | 45.58113 | -122.37579 | 5730 ft | 240 kts | 114° |
| 2026-05-04 13:17 | 45.57419 | -122.35417 | 5604 ft | 239 kts | 111° |
| 2026-05-04 13:18 | 45.56791 | -122.33257 | 5484 ft | 239 kts | 110° |
| 2026-05-04 13:18 | 45.56174 | -122.31059 | 5359 ft | 239 kts | 109° |
| 2026-05-04 13:18 | 45.55561 | -122.28857 | 5238 ft | 239 kts | 109° |
| 2026-05-04 13:18 | 45.54938 | -122.26635 | 5114 ft | 238 kts | 109° |
| 2026-05-04 13:19 | 45.54319 | -122.24442 | 4992 ft | 238 kts | 110° |
| 2026-05-04 13:19 | 45.53909 | -122.22999 | 4921 ft | 238 kts | 110° |
| 2026-05-04 13:19 | 45.53068 | -122.20077 | 4765 ft | 238 kts | 110° |
| 2026-05-04 13:19 | 45.52286 | -122.18005 | 4625 ft | 239 kts | 131° |
| 2026-05-04 13:20 | 45.50917 | -122.16750 | 4558 ft | 235 kts | 165° |
| 2026-05-04 13:20 | 45.49301 | -122.16698 | 4457 ft | 235 kts | 198° |
| 2026-05-04 13:20 | 45.48332 | -122.17341 | 4393 ft | 233 kts | 219° |
| 2026-05-04 13:20 | 45.47335 | -122.19103 | 4270 ft | 228 kts | 250° |
| 2026-05-04 13:21 | 45.47031 | -122.21279 | 4176 ft | 223 kts | 270° |
| 2026-05-04 13:21 | 45.47043 | -122.23487 | 4065 ft | 223 kts | 273° |
| 2026-05-04 13:21 | 45.47088 | -122.25689 | 3953 ft | 222 kts | 273° |
| 2026-05-04 13:21 | 45.47127 | -122.27881 | 3830 ft | 221 kts | 272° |
| 2026-05-04 13:22 | 45.47171 | -122.30087 | 3746 ft | 221 kts | 277° |
| 2026-05-04 13:22 | 45.47722 | -122.32025 | 3715 ft | 207 kts | 309° |
| 2026-05-04 13:22 | 45.48515 | -122.33663 | 3694 ft | 195 kts | 297° |
| 2026-05-04 13:22 | 45.49117 | -122.35341 | 3593 ft | 188 kts | 299° |
| 2026-05-04 13:23 | 45.49756 | -122.36969 | 3389 ft | 188 kts | 299° |
| 2026-05-04 13:23 | 45.50391 | -122.38592 | 3153 ft | 187 kts | 298° |
| 2026-05-04 13:23 | 45.51020 | -122.40216 | 2899 ft | 185 kts | 298° |
| 2026-05-04 13:23 | 45.51626 | -122.41784 | 2650 ft | 174 kts | 297° |
| 2026-05-04 13:24 | 45.52185 | -122.43230 | 2427 ft | 159 kts | 297° |
| 2026-05-04 13:24 | 45.52690 | -122.44536 | 2213 ft | 144 kts | 296° |
| 2026-05-04 13:24 | 45.53151 | -122.45730 | 2042 ft | 134 kts | 296° |
| 2026-05-04 13:25 | 45.54040 | -122.48031 | 1681 ft | 128 kts | 295° |
| 2026-05-04 13:25 | 45.54466 | -122.49149 | 1468 ft | 131 kts | 295° |
| 2026-05-04 13:25 | 45.54917 | -122.50341 | 1383 ft | 132 kts | 297° |
| 2026-05-04 13:25 | 45.55362 | -122.51475 | 1248 ft | 131 kts | 297° |
| 2026-05-04 13:26 | 45.55787 | -122.52595 | 994 ft | 125 kts | 296° |
| 2026-05-04 13:26 | 45.56193 | -122.53664 | 760 ft | 123 kts | 297° |
| 2026-05-04 13:26 | 45.56622 | -122.54739 | 653 ft | 126 kts | 298° |
| 2026-05-04 13:26 | 45.57055 | -122.55840 | 514 ft | 126 kts | 297° |
| 2026-05-04 13:27 | 45.57473 | -122.56903 | 317 ft | 120 kts | 297° |
| 2026-05-04 13:27 | 45.57888 | -122.57972 | 175 ft | 127 kts | 297° |
| 2026-05-04 13:27 | 45.58290 | -122.59025 | 33 ft | 111 kts | 297° |
| 2026-05-04 13:27 | 45.58564 | -122.59718 | 37 ft | 49 kts | 298° |
| 2026-05-04 13:28 | 45.58698 | -122.60051 | 34 ft | 27 kts | 308° |
| 2026-05-04 13:28 | 45.58833 | -122.60205 | 33 ft | 20 kts | 332° |
| 2026-05-04 13:28 | 45.58945 | -122.60216 | 30 ft | 12 kts | 25° |
| 2026-05-04 13:28 | 45.59022 | -122.60153 | 28 ft | 13 kts | 31° |
| 2026-05-04 13:29 | 45.59098 | -122.60091 | 29 ft | 12 kts | 33° |
| 2026-05-04 13:29 | 45.59138 | -122.59989 | 28 ft | 12 kts | 84° |
| 2026-05-04 13:29 | 45.59116 | -122.59873 | 28 ft | 12 kts | 121° |
| 2026-05-04 13:29 | 45.59075 | -122.59772 | 29 ft | 11 kts | 117° |
| 2026-05-04 13:30 | 45.59070 | -122.59671 | 29 ft | 10 kts | 89° |
| 2026-05-04 13:30 | 45.59096 | -122.59633 | 29 ft | 5 kts | 10° |
| 2026-05-04 13:30 | 45.59103 | -122.59631 | 29 ft | 0 kts | 8° |